sensor_id;sensor_type;location;lat;lon;timestamp;temperature;humidity
44886;DHT22;36669;51.428;21.162;2023-01-09T00:01:35;3.20;99.90
44886;DHT22;36669;51.428;21.162;2023-01-09T00:04:02;3.30;99.90
44886;DHT22;36669;51.428;21.162;2023-01-09T00:06:29;3.30;99.90
44886;DHT22;36669;51.428;21.162;2023-01-09T00:08:55;3.30;99.90
44886;DHT22;36669;51.428;21.162;2023-01-09T00:11:20;3.30;99.90
44886;DHT22;36669;51.428;21.162;2023-01-09T00:13:46;3.30;99.90
44886;DHT22;36669;51.428;21.162;2023-01-09T00:16:12;3.30;99.90
44886;DHT22;36669;51.428;21.162;2023-01-09T00:18:38;3.30;99.90
44886;DHT22;36669;51.428;21.162;2023-01-09T00:21:06;3.30;99.90
44886;DHT22;36669;51.428;21.162;2023-01-09T00:23:32;3.30;99.90
44886;DHT22;36669;51.428;21.162;2023-01-09T00:26:17;3.40;99.90
44886;DHT22;36669;51.428;21.162;2023-01-09T00:28:44;3.40;99.90
44886;DHT22;36669;51.428;21.162;2023-01-09T00:31:10;3.40;99.90
44886;DHT22;36669;51.428;21.162;2023-01-09T00:36:08;3.40;99.90
44886;DHT22;36669;51.428;21.162;2023-01-09T00:38:34;3.40;99.90
44886;DHT22;36669;51.428;21.162;2023-01-09T00:41:01;3.40;99.90
44886;DHT22;36669;51.428;21.162;2023-01-09T00:43:34;3.40;99.90
44886;DHT22;36669;51.428;21.162;2023-01-09T00:46:03;3.50;99.90
44886;DHT22;36669;51.428;21.162;2023-01-09T00:48:31;3.50;99.90
44886;DHT22;36669;51.428;21.162;2023-01-09T00:50:58;3.50;99.90
44886;DHT22;36669;51.428;21.162;2023-01-09T00:53:28;3.50;99.90
44886;DHT22;36669;51.428;21.162;2023-01-09T00:55:56;3.50;99.90
44886;DHT22;36669;51.428;21.162;2023-01-09T00:58:24;3.60;99.90
44886;DHT22;36669;51.428;21.162;2023-01-09T01:00:49;3.60;99.90
44886;DHT22;36669;51.428;21.162;2023-01-09T01:03:15;3.60;99.90
44886;DHT22;36669;51.428;21.162;2023-01-09T01:05:41;3.60;99.90
44886;DHT22;36669;51.428;21.162;2023-01-09T01:08:25;3.60;99.90
44886;DHT22;36669;51.428;21.162;2023-01-09T01:10:50;3.60;99.90
44886;DHT22;36669;51.428;21.162;2023-01-09T01:13:16;3.60;99.90
44886;DHT22;36669;51.428;21.162;2023-01-09T01:15:43;3.60;99.90
44886;DHT22;36669;51.428;21.162;2023-01-09T01:18:10;3.70;99.90
44886;DHT22;36669;51.428;21.162;2023-01-09T01:20:38;3.70;99.90
44886;DHT22;36669;51.428;21.162;2023-01-09T01:23:04;3.70;99.90
44886;DHT22;36669;51.428;21.162;2023-01-09T01:25:29;3.70;99.90
44886;DHT22;36669;51.428;21.162;2023-01-09T01:27:55;3.70;99.90
44886;DHT22;36669;51.428;21.162;2023-01-09T01:30:21;3.80;99.90
44886;DHT22;36669;51.428;21.162;2023-01-09T01:32:46;3.70;99.90
44886;DHT22;36669;51.428;21.162;2023-01-09T01:35:12;3.80;99.90
44886;DHT22;36669;51.428;21.162;2023-01-09T01:37:38;3.70;99.90
44886;DHT22;36669;51.428;21.162;2023-01-09T01:40:06;3.80;99.90
44886;DHT22;36669;51.428;21.162;2023-01-09T01:42:32;3.80;99.90
44886;DHT22;36669;51.428;21.162;2023-01-09T01:45:08;3.80;99.90
44886;DHT22;36669;51.428;21.162;2023-01-09T01:50:04;3.80;99.90
44886;DHT22;36669;51.428;21.162;2023-01-09T01:52:32;3.80;99.90
44886;DHT22;36669;51.428;21.162;2023-01-09T01:54:59;3.80;99.90
44886;DHT22;36669;51.428;21.162;2023-01-09T01:57:24;3.80;99.90
44886;DHT22;36669;51.428;21.162;2023-01-09T01:59:52;3.80;99.90
44886;DHT22;36669;51.428;21.162;2023-01-09T02:02:24;3.90;99.90
44886;DHT22;36669;51.428;21.162;2023-01-09T02:04:52;3.90;99.90
44886;DHT22;36669;51.428;21.162;2023-01-09T02:07:19;3.90;99.90
44886;DHT22;36669;51.428;21.162;2023-01-09T02:09:45;3.80;99.90
44886;DHT22;36669;51.428;21.162;2023-01-09T02:12:19;3.90;99.90
44886;DHT22;36669;51.428;21.162;2023-01-09T02:14:50;3.90;99.90
44886;DHT22;36669;51.428;21.162;2023-01-09T02:26:12;3.90;99.90
44886;DHT22;36669;51.428;21.162;2023-01-09T02:42:36;4.00;99.90
44886;DHT22;36669;51.428;21.162;2023-01-09T02:45:03;4.00;99.90
44886;DHT22;36669;51.428;21.162;2023-01-09T02:49:55;4.00;99.90
44886;DHT22;36669;51.428;21.162;2023-01-09T02:52:26;4.10;99.90
44886;DHT22;36669;51.428;21.162;2023-01-09T03:09:01;4.10;99.90
44886;DHT22;36669;51.428;21.162;2023-01-09T03:11:31;4.10;99.90
44886;DHT22;36669;51.428;21.162;2023-01-09T03:14:04;4.10;99.90
44886;DHT22;36669;51.428;21.162;2023-01-09T03:16:34;4.10;99.90
44886;DHT22;36669;51.428;21.162;2023-01-09T03:19:02;4.10;99.90
44886;DHT22;36669;51.428;21.162;2023-01-09T03:21:30;4.10;99.90
44886;DHT22;36669;51.428;21.162;2023-01-09T03:23:58;4.10;99.90
44886;DHT22;36669;51.428;21.162;2023-01-09T03:26:24;4.10;99.90
44886;DHT22;36669;51.428;21.162;2023-01-09T03:28:51;4.10;99.90
44886;DHT22;36669;51.428;21.162;2023-01-09T03:31:17;4.10;99.90
44886;DHT22;36669;51.428;21.162;2023-01-09T03:33:43;4.10;99.90
44886;DHT22;36669;51.428;21.162;2023-01-09T03:36:12;4.20;99.90
44886;DHT22;36669;51.428;21.162;2023-01-09T03:38:38;4.20;99.90
44886;DHT22;36669;51.428;21.162;2023-01-09T03:41:05;4.20;99.90
44886;DHT22;36669;51.428;21.162;2023-01-09T03:43:33;4.20;99.90
44886;DHT22;36669;51.428;21.162;2023-01-09T03:46:00;4.20;99.90
44886;DHT22;36669;51.428;21.162;2023-01-09T03:48:26;4.20;99.90
44886;DHT22;36669;51.428;21.162;2023-01-09T03:50:52;4.20;99.90
44886;DHT22;36669;51.428;21.162;2023-01-09T03:53:20;4.10;99.90
44886;DHT22;36669;51.428;21.162;2023-01-09T03:55:47;4.10;99.90
44886;DHT22;36669;51.428;21.162;2023-01-09T03:58:14;4.10;99.90
44886;DHT22;36669;51.428;21.162;2023-01-09T04:00:40;4.10;99.90
44886;DHT22;36669;51.428;21.162;2023-01-09T04:03:07;4.20;99.90
44886;DHT22;36669;51.428;21.162;2023-01-09T04:05:34;4.20;99.90
44886;DHT22;36669;51.428;21.162;2023-01-09T04:08:00;4.20;99.90
44886;DHT22;36669;51.428;21.162;2023-01-09T04:10:25;4.10;99.90
44886;DHT22;36669;51.428;21.162;2023-01-09T04:12:51;4.10;99.90
44886;DHT22;36669;51.428;21.162;2023-01-09T04:15:17;4.10;99.90
44886;DHT22;36669;51.428;21.162;2023-01-09T04:17:42;4.20;99.90
44886;DHT22;36669;51.428;21.162;2023-01-09T04:20:08;4.20;99.90
44886;DHT22;36669;51.428;21.162;2023-01-09T04:22:34;4.20;99.90
44886;DHT22;36669;51.428;21.162;2023-01-09T04:25:00;4.20;99.90
44886;DHT22;36669;51.428;21.162;2023-01-09T04:27:25;4.20;99.90
44886;DHT22;36669;51.428;21.162;2023-01-09T04:29:51;4.20;99.90
44886;DHT22;36669;51.428;21.162;2023-01-09T04:32:17;4.20;99.90
44886;DHT22;36669;51.428;21.162;2023-01-09T04:34:42;4.20;99.90
44886;DHT22;36669;51.428;21.162;2023-01-09T04:37:08;4.10;99.90
44886;DHT22;36669;51.428;21.162;2023-01-09T04:39:33;4.10;99.90
44886;DHT22;36669;51.428;21.162;2023-01-09T04:41:59;4.10;99.90
44886;DHT22;36669;51.428;21.162;2023-01-09T04:44:25;4.20;99.90
44886;DHT22;36669;51.428;21.162;2023-01-09T04:46:51;4.10;99.90
44886;DHT22;36669;51.428;21.162;2023-01-09T04:49:19;4.10;99.90
44886;DHT22;36669;51.428;21.162;2023-01-09T04:51:44;4.10;99.90
44886;DHT22;36669;51.428;21.162;2023-01-09T04:54:10;4.10;99.90
44886;DHT22;36669;51.428;21.162;2023-01-09T04:56:36;4.00;99.90
44886;DHT22;36669;51.428;21.162;2023-01-09T04:59:03;4.00;99.90
44886;DHT22;36669;51.428;21.162;2023-01-09T05:01:29;4.00;99.90
44886;DHT22;36669;51.428;21.162;2023-01-09T05:03:54;3.90;99.90
44886;DHT22;36669;51.428;21.162;2023-01-09T05:06:20;3.90;99.90
44886;DHT22;36669;51.428;21.162;2023-01-09T05:08:45;3.90;99.90
44886;DHT22;36669;51.428;21.162;2023-01-09T05:11:11;3.90;99.90
44886;DHT22;36669;51.428;21.162;2023-01-09T05:13:37;3.80;99.90
44886;DHT22;36669;51.428;21.162;2023-01-09T05:16:02;3.80;99.90
44886;DHT22;36669;51.428;21.162;2023-01-09T05:18:28;3.80;99.90
44886;DHT22;36669;51.428;21.162;2023-01-09T05:20:53;3.70;99.90
44886;DHT22;36669;51.428;21.162;2023-01-09T05:23:19;3.70;99.90
44886;DHT22;36669;51.428;21.162;2023-01-09T05:25:45;3.60;99.90
44886;DHT22;36669;51.428;21.162;2023-01-09T05:28:10;3.60;99.90
44886;DHT22;36669;51.428;21.162;2023-01-09T05:30:36;3.60;99.90
44886;DHT22;36669;51.428;21.162;2023-01-09T05:33:02;3.50;99.90
44886;DHT22;36669;51.428;21.162;2023-01-09T05:35:27;3.50;99.90
44886;DHT22;36669;51.428;21.162;2023-01-09T05:37:53;3.50;99.90
44886;DHT22;36669;51.428;21.162;2023-01-09T05:40:19;3.40;99.90
44886;DHT22;36669;51.428;21.162;2023-01-09T05:42:45;3.40;99.90
44886;DHT22;36669;51.428;21.162;2023-01-09T05:45:10;3.40;99.90
44886;DHT22;36669;51.428;21.162;2023-01-09T05:47:37;3.40;99.90
44886;DHT22;36669;51.428;21.162;2023-01-09T05:50:03;3.40;99.90
44886;DHT22;36669;51.428;21.162;2023-01-09T05:52:29;3.40;99.90
44886;DHT22;36669;51.428;21.162;2023-01-09T05:54:55;3.40;99.90
44886;DHT22;36669;51.428;21.162;2023-01-09T05:57:20;3.30;99.90
44886;DHT22;36669;51.428;21.162;2023-01-09T05:59:46;3.30;99.90
44886;DHT22;36669;51.428;21.162;2023-01-09T06:02:11;3.30;99.90
44886;DHT22;36669;51.428;21.162;2023-01-09T06:04:37;3.30;99.90
44886;DHT22;36669;51.428;21.162;2023-01-09T06:07:03;3.30;99.90
44886;DHT22;36669;51.428;21.162;2023-01-09T06:09:28;3.20;99.90
44886;DHT22;36669;51.428;21.162;2023-01-09T06:11:55;3.20;99.90
44886;DHT22;36669;51.428;21.162;2023-01-09T06:14:22;3.30;99.90
44886;DHT22;36669;51.428;21.162;2023-01-09T06:16:48;3.30;99.90
44886;DHT22;36669;51.428;21.162;2023-01-09T06:19:14;3.30;99.90
44886;DHT22;36669;51.428;21.162;2023-01-09T06:21:40;3.30;99.90
44886;DHT22;36669;51.428;21.162;2023-01-09T06:24:06;3.30;99.90
44886;DHT22;36669;51.428;21.162;2023-01-09T06:26:32;3.20;99.90
44886;DHT22;36669;51.428;21.162;2023-01-09T06:28:57;3.20;99.90
44886;DHT22;36669;51.428;21.162;2023-01-09T06:31:25;3.20;99.90
44886;DHT22;36669;51.428;21.162;2023-01-09T06:33:51;3.20;99.90
44886;DHT22;36669;51.428;21.162;2023-01-09T06:36:17;3.20;99.90
44886;DHT22;36669;51.428;21.162;2023-01-09T06:38:42;3.20;99.90
44886;DHT22;36669;51.428;21.162;2023-01-09T06:41:08;3.10;99.90
44886;DHT22;36669;51.428;21.162;2023-01-09T06:43:34;3.10;99.90
44886;DHT22;36669;51.428;21.162;2023-01-09T06:45:59;3.10;99.90
44886;DHT22;36669;51.428;21.162;2023-01-09T06:48:25;3.10;99.90
44886;DHT22;36669;51.428;21.162;2023-01-09T06:50:51;3.10;99.90
44886;DHT22;36669;51.428;21.162;2023-01-09T06:53:17;3.10;99.90
44886;DHT22;36669;51.428;21.162;2023-01-09T06:55:44;3.10;99.90
44886;DHT22;36669;51.428;21.162;2023-01-09T06:58:10;3.20;99.90
44886;DHT22;36669;51.428;21.162;2023-01-09T07:00:35;3.20;99.90
44886;DHT22;36669;51.428;21.162;2023-01-09T07:03:01;3.20;99.90
44886;DHT22;36669;51.428;21.162;2023-01-09T07:05:27;3.20;99.90
44886;DHT22;36669;51.428;21.162;2023-01-09T07:07:53;3.30;99.90
44886;DHT22;36669;51.428;21.162;2023-01-09T07:10:19;3.30;99.90
44886;DHT22;36669;51.428;21.162;2023-01-09T07:12:46;3.30;99.90
44886;DHT22;36669;51.428;21.162;2023-01-09T07:15:11;3.40;99.90
44886;DHT22;36669;51.428;21.162;2023-01-09T07:17:37;3.40;99.90
44886;DHT22;36669;51.428;21.162;2023-01-09T07:20:03;3.30;99.90
44886;DHT22;36669;51.428;21.162;2023-01-09T07:22:29;3.40;99.90
44886;DHT22;36669;51.428;21.162;2023-01-09T07:25:07;3.40;99.90
44886;DHT22;36669;51.428;21.162;2023-01-09T07:30:54;3.40;99.90
44886;DHT22;36669;51.428;21.162;2023-01-09T07:33:20;3.50;99.90
44886;DHT22;36669;51.428;21.162;2023-01-09T07:35:45;3.50;99.90
44886;DHT22;36669;51.428;21.162;2023-01-09T07:38:11;3.50;99.90
44886;DHT22;36669;51.428;21.162;2023-01-09T07:40:37;3.50;99.90
44886;DHT22;36669;51.428;21.162;2023-01-09T07:43:03;3.50;99.90
44886;DHT22;36669;51.428;21.162;2023-01-09T07:45:28;3.50;99.90
44886;DHT22;36669;51.428;21.162;2023-01-09T07:47:55;3.50;99.90
44886;DHT22;36669;51.428;21.162;2023-01-09T07:57:04;3.60;99.90
44886;DHT22;36669;51.428;21.162;2023-01-09T07:59:30;3.60;99.90
44886;DHT22;36669;51.428;21.162;2023-01-09T08:01:56;3.60;99.90
44886;DHT22;36669;51.428;21.162;2023-01-09T08:04:22;3.60;99.90
44886;DHT22;36669;51.428;21.162;2023-01-09T08:06:48;3.70;99.90
44886;DHT22;36669;51.428;21.162;2023-01-09T08:09:13;3.80;99.90
44886;DHT22;36669;51.428;21.162;2023-01-09T08:11:40;3.80;99.90
44886;DHT22;36669;51.428;21.162;2023-01-09T08:14:06;3.80;99.90
44886;DHT22;36669;51.428;21.162;2023-01-09T08:16:32;3.90;99.90
44886;DHT22;36669;51.428;21.162;2023-01-09T08:18:57;4.00;99.90
44886;DHT22;36669;51.428;21.162;2023-01-09T08:21:23;4.10;99.90
44886;DHT22;36669;51.428;21.162;2023-01-09T08:23:49;4.10;99.90
44886;DHT22;36669;51.428;21.162;2023-01-09T08:26:15;4.10;99.90
44886;DHT22;36669;51.428;21.162;2023-01-09T08:28:41;4.20;99.90
44886;DHT22;36669;51.428;21.162;2023-01-09T08:31:07;4.20;99.90
44886;DHT22;36669;51.428;21.162;2023-01-09T08:33:32;4.30;99.90
44886;DHT22;36669;51.428;21.162;2023-01-09T08:35:58;4.40;99.90
44886;DHT22;36669;51.428;21.162;2023-01-09T08:38:55;4.40;99.90
44886;DHT22;36669;51.428;21.162;2023-01-09T08:49:06;4.60;99.90
44886;DHT22;36669;51.428;21.162;2023-01-09T08:51:33;4.60;99.90
44886;DHT22;36669;51.428;21.162;2023-01-09T08:54:00;4.60;99.90
44886;DHT22;36669;51.428;21.162;2023-01-09T08:56:27;4.70;99.90
44886;DHT22;36669;51.428;21.162;2023-01-09T08:58:55;4.80;99.90
44886;DHT22;36669;51.428;21.162;2023-01-09T09:01:22;4.80;99.90
44886;DHT22;36669;51.428;21.162;2023-01-09T09:03:48;4.90;99.90
44886;DHT22;36669;51.428;21.162;2023-01-09T09:06:15;4.90;99.90
44886;DHT22;36669;51.428;21.162;2023-01-09T09:08:42;4.90;99.90
44886;DHT22;36669;51.428;21.162;2023-01-09T09:11:08;5.00;99.90
44886;DHT22;36669;51.428;21.162;2023-01-09T09:13:35;5.00;99.90
44886;DHT22;36669;51.428;21.162;2023-01-09T09:16:03;5.00;99.90
44886;DHT22;36669;51.428;21.162;2023-01-09T09:18:29;5.10;99.90
44886;DHT22;36669;51.428;21.162;2023-01-09T09:20:56;5.10;99.90
44886;DHT22;36669;51.428;21.162;2023-01-09T09:23:23;5.20;99.90
44886;DHT22;36669;51.428;21.162;2023-01-09T09:25:50;5.20;99.90
44886;DHT22;36669;51.428;21.162;2023-01-09T09:28:16;5.20;99.90
44886;DHT22;36669;51.428;21.162;2023-01-09T09:30:43;5.20;99.90
44886;DHT22;36669;51.428;21.162;2023-01-09T09:33:09;5.30;99.90
44886;DHT22;36669;51.428;21.162;2023-01-09T09:35:36;5.30;99.90
44886;DHT22;36669;51.428;21.162;2023-01-09T09:38:06;5.30;99.90
44886;DHT22;36669;51.428;21.162;2023-01-09T09:43:53;5.40;99.90
44886;DHT22;36669;51.428;21.162;2023-01-09T09:47:30;5.50;99.90
44886;DHT22;36669;51.428;21.162;2023-01-09T09:53:35;5.40;99.90
44886;DHT22;36669;51.428;21.162;2023-01-09T09:56:04;5.50;99.90
44886;DHT22;36669;51.428;21.162;2023-01-09T09:59:03;5.50;99.90
44886;DHT22;36669;51.428;21.162;2023-01-09T10:01:42;5.50;99.90
44886;DHT22;36669;51.428;21.162;2023-01-09T10:04:15;5.50;99.90
44886;DHT22;36669;51.428;21.162;2023-01-09T10:06:51;5.50;99.90
44886;DHT22;36669;51.428;21.162;2023-01-09T10:09:51;5.50;99.90
44886;DHT22;36669;51.428;21.162;2023-01-09T10:12:38;5.50;99.90
44886;DHT22;36669;51.428;21.162;2023-01-09T10:15:37;5.50;99.90
44886;DHT22;36669;51.428;21.162;2023-01-09T10:18:31;5.60;99.90
44886;DHT22;36669;51.428;21.162;2023-01-09T10:21:08;5.60;99.90
44886;DHT22;36669;51.428;21.162;2023-01-09T10:26:45;5.60;99.90
44886;DHT22;36669;51.428;21.162;2023-01-09T10:32:38;5.70;99.90
44886;DHT22;36669;51.428;21.162;2023-01-09T10:37:57;5.80;99.90
44886;DHT22;36669;51.428;21.162;2023-01-09T10:40:53;5.80;99.90
44886;DHT22;36669;51.428;21.162;2023-01-09T10:43:35;5.90;99.90
44886;DHT22;36669;51.428;21.162;2023-01-09T10:46:09;6.00;99.90
44886;DHT22;36669;51.428;21.162;2023-01-09T10:48:44;6.00;99.90
44886;DHT22;36669;51.428;21.162;2023-01-09T10:51:21;6.10;99.90
44886;DHT22;36669;51.428;21.162;2023-01-09T10:53:53;6.20;99.90
44886;DHT22;36669;51.428;21.162;2023-01-09T10:56:36;6.20;99.90
44886;DHT22;36669;51.428;21.162;2023-01-09T10:59:04;6.20;99.90
44886;DHT22;36669;51.428;21.162;2023-01-09T11:01:37;6.20;99.90
44886;DHT22;36669;51.428;21.162;2023-01-09T11:04:33;6.20;99.90
44886;DHT22;36669;51.428;21.162;2023-01-09T11:07:25;6.30;99.90
44886;DHT22;36669;51.428;21.162;2023-01-09T11:10:13;6.30;99.90
44886;DHT22;36669;51.428;21.162;2023-01-09T11:12:42;6.30;99.90
44886;DHT22;36669;51.428;21.162;2023-01-09T11:17:46;6.40;99.90
44886;DHT22;36669;51.428;21.162;2023-01-09T11:20:27;6.30;99.90
44886;DHT22;36669;51.428;21.162;2023-01-09T11:22:57;6.30;99.90
44886;DHT22;36669;51.428;21.162;2023-01-09T11:25:30;6.30;99.90
44886;DHT22;36669;51.428;21.162;2023-01-09T11:28:05;6.30;99.90
44886;DHT22;36669;51.428;21.162;2023-01-09T11:30:49;6.30;99.90
44886;DHT22;36669;51.428;21.162;2023-01-09T11:33:21;6.40;99.90
44886;DHT22;36669;51.428;21.162;2023-01-09T11:36:08;6.40;99.90
44886;DHT22;36669;51.428;21.162;2023-01-09T11:38:52;6.40;99.90
44886;DHT22;36669;51.428;21.162;2023-01-09T11:41:22;6.50;99.90
44886;DHT22;36669;51.428;21.162;2023-01-09T11:43:55;6.50;99.90
44886;DHT22;36669;51.428;21.162;2023-01-09T11:46:35;6.50;99.90
44886;DHT22;36669;51.428;21.162;2023-01-09T11:51:43;6.50;99.90
44886;DHT22;36669;51.428;21.162;2023-01-09T11:54:26;6.50;99.90
44886;DHT22;36669;51.428;21.162;2023-01-09T11:56:54;6.50;99.90
44886;DHT22;36669;51.428;21.162;2023-01-09T11:59:26;6.50;99.90
44886;DHT22;36669;51.428;21.162;2023-01-09T12:05:23;6.70;99.90
44886;DHT22;36669;51.428;21.162;2023-01-09T12:11:05;6.80;99.90
44886;DHT22;36669;51.428;21.162;2023-01-09T12:16:42;6.90;99.90
44886;DHT22;36669;51.428;21.162;2023-01-09T12:25:49;7.10;99.90
44886;DHT22;36669;51.428;21.162;2023-01-09T12:40:04;7.40;99.90
44886;DHT22;36669;51.428;21.162;2023-01-09T12:42:38;7.40;99.90
44886;DHT22;36669;51.428;21.162;2023-01-09T12:48:48;7.50;99.90
44886;DHT22;36669;51.428;21.162;2023-01-09T12:59:52;7.60;99.90
44886;DHT22;36669;51.428;21.162;2023-01-09T13:02:30;7.70;99.90
44886;DHT22;36669;51.428;21.162;2023-01-09T13:05:05;7.70;99.90
44886;DHT22;36669;51.428;21.162;2023-01-09T13:07:42;7.70;99.90
44886;DHT22;36669;51.428;21.162;2023-01-09T13:10:22;7.70;99.90
44886;DHT22;36669;51.428;21.162;2023-01-09T13:12:52;7.70;99.90
44886;DHT22;36669;51.428;21.162;2023-01-09T13:15:42;7.70;99.90
44886;DHT22;36669;51.428;21.162;2023-01-09T13:18:15;7.70;99.90
44886;DHT22;36669;51.428;21.162;2023-01-09T13:20:47;7.80;99.90
44886;DHT22;36669;51.428;21.162;2023-01-09T13:26:14;7.80;99.90
44886;DHT22;36669;51.428;21.162;2023-01-09T13:28:43;7.80;99.90
44886;DHT22;36669;51.428;21.162;2023-01-09T13:31:26;7.90;99.90
44886;DHT22;36669;51.428;21.162;2023-01-09T13:33:58;7.90;99.90
44886;DHT22;36669;51.428;21.162;2023-01-09T13:36:30;7.90;99.90
44886;DHT22;36669;51.428;21.162;2023-01-09T13:38:59;7.90;99.90
44886;DHT22;36669;51.428;21.162;2023-01-09T13:41:25;7.90;99.90
44886;DHT22;36669;51.428;21.162;2023-01-09T13:44:24;7.90;99.90
44886;DHT22;36669;51.428;21.162;2023-01-09T13:46:54;7.90;99.90
44886;DHT22;36669;51.428;21.162;2023-01-09T14:08:03;7.90;99.90
44886;DHT22;36669;51.428;21.162;2023-01-09T14:10:54;7.90;99.90
44886;DHT22;36669;51.428;21.162;2023-01-09T14:13:42;7.90;99.90
44886;DHT22;36669;51.428;21.162;2023-01-09T14:16:25;7.90;99.90
44886;DHT22;36669;51.428;21.162;2023-01-09T14:21:22;7.90;99.90
44886;DHT22;36669;51.428;21.162;2023-01-09T14:24:03;7.90;99.90
44886;DHT22;36669;51.428;21.162;2023-01-09T14:26:47;7.90;99.90
44886;DHT22;36669;51.428;21.162;2023-01-09T14:35:07;7.90;99.90
44886;DHT22;36669;51.428;21.162;2023-01-09T14:37:36;7.90;99.90
44886;DHT22;36669;51.428;21.162;2023-01-09T14:40:04;7.90;99.90
44886;DHT22;36669;51.428;21.162;2023-01-09T14:42:33;7.90;99.90
44886;DHT22;36669;51.428;21.162;2023-01-09T14:45:23;7.90;99.90
44886;DHT22;36669;51.428;21.162;2023-01-09T14:47:59;7.90;99.90
44886;DHT22;36669;51.428;21.162;2023-01-09T14:56:01;7.90;99.90
44886;DHT22;36669;51.428;21.162;2023-01-09T14:58:30;7.90;99.90
44886;DHT22;36669;51.428;21.162;2023-01-09T15:01:18;8.00;99.90
44886;DHT22;36669;51.428;21.162;2023-01-09T15:04:00;8.00;99.90
44886;DHT22;36669;51.428;21.162;2023-01-09T15:06:36;8.00;99.90
44886;DHT22;36669;51.428;21.162;2023-01-09T15:11:45;8.00;99.90
44886;DHT22;36669;51.428;21.162;2023-01-09T15:14:28;8.00;99.90
44886;DHT22;36669;51.428;21.162;2023-01-09T15:16:55;8.00;99.90
44886;DHT22;36669;51.428;21.162;2023-01-09T15:19:21;7.90;99.90
44886;DHT22;36669;51.428;21.162;2023-01-09T15:22:04;8.00;99.90
44886;DHT22;36669;51.428;21.162;2023-01-09T15:24:32;8.00;99.90
44886;DHT22;36669;51.428;21.162;2023-01-09T15:27:02;7.90;99.90
44886;DHT22;36669;51.428;21.162;2023-01-09T15:29:30;7.90;99.90
44886;DHT22;36669;51.428;21.162;2023-01-09T15:32:04;7.90;99.90
44886;DHT22;36669;51.428;21.162;2023-01-09T15:34:32;7.90;99.90
44886;DHT22;36669;51.428;21.162;2023-01-09T15:36:59;7.90;99.90
44886;DHT22;36669;51.428;21.162;2023-01-09T15:39:34;7.90;99.90
44886;DHT22;36669;51.428;21.162;2023-01-09T15:42:28;7.90;99.90
44886;DHT22;36669;51.428;21.162;2023-01-09T15:45:31;7.90;99.90
44886;DHT22;36669;51.428;21.162;2023-01-09T15:50:49;7.90;99.90
44886;DHT22;36669;51.428;21.162;2023-01-09T15:53:19;7.90;99.90
44886;DHT22;36669;51.428;21.162;2023-01-09T15:56:45;7.90;99.90
44886;DHT22;36669;51.428;21.162;2023-01-09T15:58:53;7.90;99.90
44886;DHT22;36669;51.428;21.162;2023-01-09T16:01:38;7.90;99.90
44886;DHT22;36669;51.428;21.162;2023-01-09T16:04:11;7.90;99.90
44886;DHT22;36669;51.428;21.162;2023-01-09T16:06:50;7.90;99.90
44886;DHT22;36669;51.428;21.162;2023-01-09T16:09:30;7.90;99.90
44886;DHT22;36669;51.428;21.162;2023-01-09T16:12:03;7.90;99.90
44886;DHT22;36669;51.428;21.162;2023-01-09T16:14:35;7.90;99.90
44886;DHT22;36669;51.428;21.162;2023-01-09T16:17:12;7.90;99.90
44886;DHT22;36669;51.428;21.162;2023-01-09T16:20:13;7.90;99.90
44886;DHT22;36669;51.428;21.162;2023-01-09T16:22:55;7.90;99.90
44886;DHT22;36669;51.428;21.162;2023-01-09T16:25:34;7.90;99.90
44886;DHT22;36669;51.428;21.162;2023-01-09T16:28:23;7.90;99.90
44886;DHT22;36669;51.428;21.162;2023-01-09T16:33:44;7.90;99.90
44886;DHT22;36669;51.428;21.162;2023-01-09T16:36:11;7.90;99.90
44886;DHT22;36669;51.428;21.162;2023-01-09T16:38:41;7.90;99.90
44886;DHT22;36669;51.428;21.162;2023-01-09T16:41:13;7.90;99.90
44886;DHT22;36669;51.428;21.162;2023-01-09T16:43:58;8.00;99.90
44886;DHT22;36669;51.428;21.162;2023-01-09T16:46:27;7.90;99.90
44886;DHT22;36669;51.428;21.162;2023-01-09T16:48:53;7.90;99.90
44886;DHT22;36669;51.428;21.162;2023-01-09T16:51:21;8.00;99.90
44886;DHT22;36669;51.428;21.162;2023-01-09T16:53:48;8.00;99.90
44886;DHT22;36669;51.428;21.162;2023-01-09T16:56:20;8.00;99.90
44886;DHT22;36669;51.428;21.162;2023-01-09T16:58:48;7.90;99.90
44886;DHT22;36669;51.428;21.162;2023-01-09T17:01:15;7.90;99.90
44886;DHT22;36669;51.428;21.162;2023-01-09T17:03:43;7.90;99.90
44886;DHT22;36669;51.428;21.162;2023-01-09T17:06:19;7.80;99.90
44886;DHT22;36669;51.428;21.162;2023-01-09T17:08:47;7.80;99.90
44886;DHT22;36669;51.428;21.162;2023-01-09T17:11:25;7.80;99.90
44886;DHT22;36669;51.428;21.162;2023-01-09T17:13:56;7.80;99.90
44886;DHT22;36669;51.428;21.162;2023-01-09T17:16:24;7.80;99.90
44886;DHT22;36669;51.428;21.162;2023-01-09T17:18:52;7.90;99.90
44886;DHT22;36669;51.428;21.162;2023-01-09T17:21:21;7.80;99.90
44886;DHT22;36669;51.428;21.162;2023-01-09T17:23:49;7.90;99.90
44886;DHT22;36669;51.428;21.162;2023-01-09T17:26:38;7.90;99.90
44886;DHT22;36669;51.428;21.162;2023-01-09T17:29:24;7.90;99.90
44886;DHT22;36669;51.428;21.162;2023-01-09T17:31:53;7.90;99.90
44886;DHT22;36669;51.428;21.162;2023-01-09T17:34:20;7.90;99.90
44886;DHT22;36669;51.428;21.162;2023-01-09T17:36:45;7.90;99.90
44886;DHT22;36669;51.428;21.162;2023-01-09T17:39:13;7.90;99.90
44886;DHT22;36669;51.428;21.162;2023-01-09T17:41:40;7.90;99.90
44886;DHT22;36669;51.428;21.162;2023-01-09T17:44:10;7.90;99.90
44886;DHT22;36669;51.428;21.162;2023-01-09T17:46:39;7.90;99.90
44886;DHT22;36669;51.428;21.162;2023-01-09T17:49:08;7.90;99.90
44886;DHT22;36669;51.428;21.162;2023-01-09T17:51:38;7.90;99.90
44886;DHT22;36669;51.428;21.162;2023-01-09T17:54:05;7.90;99.90
44886;DHT22;36669;51.428;21.162;2023-01-09T17:56:33;7.90;99.90
44886;DHT22;36669;51.428;21.162;2023-01-09T17:59:03;7.90;99.90
44886;DHT22;36669;51.428;21.162;2023-01-09T18:01:31;7.90;99.90
44886;DHT22;36669;51.428;21.162;2023-01-09T18:03:57;7.90;99.90
44886;DHT22;36669;51.428;21.162;2023-01-09T18:06:25;7.90;99.90
44886;DHT22;36669;51.428;21.162;2023-01-09T18:08:52;7.90;99.90
44886;DHT22;36669;51.428;21.162;2023-01-09T18:11:20;7.90;99.90
44886;DHT22;36669;51.428;21.162;2023-01-09T18:13:55;7.90;99.90
44886;DHT22;36669;51.428;21.162;2023-01-09T18:16:23;7.90;99.90
44886;DHT22;36669;51.428;21.162;2023-01-09T18:18:54;7.90;99.90
44886;DHT22;36669;51.428;21.162;2023-01-09T18:21:24;7.90;99.90
44886;DHT22;36669;51.428;21.162;2023-01-09T18:23:51;7.90;99.90
44886;DHT22;36669;51.428;21.162;2023-01-09T18:26:19;7.90;99.90
44886;DHT22;36669;51.428;21.162;2023-01-09T18:28:51;7.90;99.90
44886;DHT22;36669;51.428;21.162;2023-01-09T18:31:19;7.90;99.90
44886;DHT22;36669;51.428;21.162;2023-01-09T18:33:52;7.90;99.90
44886;DHT22;36669;51.428;21.162;2023-01-09T18:36:20;7.90;99.90
44886;DHT22;36669;51.428;21.162;2023-01-09T18:38:49;7.90;99.90